createdAt,value
2023-05-13T00:00:03.107Z,1003.17
2023-05-13T00:01:03.126Z,1003.12
2023-05-13T00:02:03.106Z,1003.07
2023-05-13T00:03:03.140Z,1003.09
2023-05-13T00:04:03.056Z,1003.12
2023-05-13T00:05:03.049Z,1003.09
2023-05-13T00:06:03.053Z,1003.12
2023-05-13T00:07:03.031Z,1003.13
2023-05-13T00:08:03.009Z,1003.14
2023-05-13T00:09:02.992Z,1003.15
2023-05-13T00:10:02.980Z,1003.20
2023-05-13T00:11:02.980Z,1003.15
2023-05-13T00:12:02.970Z,1003.20
2023-05-13T00:13:02.950Z,1003.18
2023-05-13T00:14:02.942Z,1003.19
2023-05-13T00:15:02.922Z,1003.22
2023-05-13T00:16:02.950Z,1003.26
2023-05-13T00:17:02.922Z,1003.15
2023-05-13T00:18:02.980Z,1003.17
2023-05-13T00:19:02.981Z,1003.16
2023-05-13T00:20:02.856Z,1003.16
2023-05-13T00:21:02.859Z,1003.16
2023-05-13T00:22:02.820Z,1003.12
2023-05-13T00:23:02.815Z,1003.15
2023-05-13T00:24:02.809Z,1003.12
2023-05-13T00:25:02.795Z,1003.13
2023-05-13T00:26:02.788Z,1003.15
2023-05-13T00:27:02.772Z,1003.12
2023-05-13T00:28:02.762Z,1003.14
2023-05-13T00:29:02.740Z,1003.13
2023-05-13T00:30:02.738Z,1003.10
2023-05-13T00:31:02.704Z,1003.14
2023-05-13T00:32:02.753Z,1003.13
2023-05-13T00:33:02.739Z,1003.17
2023-05-13T00:34:02.668Z,1003.16
2023-05-13T00:35:02.665Z,1003.19
2023-05-13T00:36:02.650Z,1003.16
2023-05-13T00:37:02.632Z,1003.19
2023-05-13T00:38:02.625Z,1003.22
2023-05-13T00:39:02.608Z,1003.25
2023-05-13T00:40:02.619Z,1003.24
2023-05-13T00:41:02.584Z,1003.20
2023-05-13T00:42:02.572Z,1003.27
2023-05-13T00:43:02.552Z,1003.24
2023-05-13T00:44:02.552Z,1003.25
2023-05-13T00:45:02.541Z,1003.20
2023-05-13T00:46:02.584Z,1003.20
2023-05-13T00:47:02.504Z,1003.26
2023-05-13T00:48:02.526Z,1003.20
2023-05-13T00:49:02.504Z,1003.21
2023-05-13T00:50:02.461Z,1003.27
2023-05-13T00:51:02.461Z,1003.23
2023-05-13T00:52:02.435Z,1003.19
2023-05-13T00:53:02.423Z,1003.18
2023-05-13T00:54:02.426Z,1003.20
2023-05-13T00:55:02.410Z,1003.23
2023-05-13T00:56:02.386Z,1003.21
2023-05-13T00:57:02.395Z,1003.27
2023-05-13T00:58:02.373Z,1003.19
2023-05-13T00:59:02.356Z,1003.17
2023-05-13T01:00:02.362Z,1003.19
2023-05-13T01:01:02.426Z,1003.20
2023-05-13T01:02:02.382Z,1003.24
2023-05-13T01:03:02.407Z,1003.26
2023-05-13T01:04:02.291Z,1003.22
2023-05-13T01:05:02.300Z,1003.23
2023-05-13T01:06:02.268Z,1003.20
2023-05-13T01:07:02.249Z,1003.21
2023-05-13T01:08:02.238Z,1003.21
2023-05-13T01:09:02.214Z,1003.22
2023-05-13T01:10:02.220Z,1003.20
2023-05-13T01:11:02.182Z,1003.25
2023-05-13T01:12:02.181Z,1003.20
2023-05-13T01:13:02.177Z,1003.18
2023-05-13T01:14:02.143Z,1003.19
2023-05-13T01:15:02.130Z,1003.28
2023-05-13T01:16:02.114Z,1003.24
2023-05-13T01:17:02.267Z,1003.24
2023-05-13T01:18:02.139Z,1003.25
2023-05-13T01:19:02.146Z,1003.28
2023-05-13T01:20:02.079Z,1003.21
2023-05-13T01:21:02.101Z,1003.23
2023-05-13T01:22:02.062Z,1003.21
2023-05-13T01:23:02.027Z,1003.28
2023-05-13T01:24:02.044Z,1003.21
2023-05-13T01:25:02.021Z,1003.23
2023-05-13T01:26:01.989Z,1003.21
2023-05-13T01:27:01.988Z,1003.22
2023-05-13T01:28:01.969Z,1003.22
2023-05-13T01:29:01.952Z,1003.18
2023-05-13T01:30:01.930Z,1003.25
2023-05-13T01:31:01.984Z,1003.22
2023-05-13T01:32:01.920Z,1003.22
2023-05-13T01:33:01.922Z,1003.20
2023-05-13T01:34:01.882Z,1003.18
2023-05-13T01:35:01.871Z,1003.17
2023-05-13T01:36:01.873Z,1003.18
2023-05-13T01:37:01.873Z,1003.15
2023-05-13T01:38:01.839Z,1003.24
2023-05-13T01:39:01.821Z,1003.22
2023-05-13T01:40:03.020Z,1003.21
2023-05-13T01:41:01.802Z,1003.22
2023-05-13T01:42:01.776Z,1003.20
2023-05-13T01:43:01.762Z,1003.23
2023-05-13T01:44:01.749Z,1003.24
2023-05-13T01:45:01.754Z,1003.22
2023-05-13T01:46:01.805Z,1003.21
2023-05-13T01:47:01.711Z,1003.22
2023-05-13T01:48:01.767Z,1003.17
2023-05-13T01:49:01.690Z,1003.14
2023-05-13T01:50:01.707Z,1003.15
2023-05-13T01:51:01.673Z,1003.18
2023-05-13T01:52:01.649Z,1003.17
2023-05-13T01:53:01.680Z,1003.15
2023-05-13T01:54:01.622Z,1003.18
2023-05-13T01:55:01.632Z,1003.15
2023-05-13T01:56:01.590Z,1003.16
2023-05-13T01:57:01.597Z,1003.17
2023-05-13T01:58:01.563Z,1003.16
2023-05-13T01:59:01.553Z,1003.18
2023-05-13T02:00:01.553Z,1003.19
2023-05-13T02:01:01.532Z,1003.17
2023-05-13T02:02:01.594Z,1003.15
2023-05-13T02:03:01.628Z,1003.15
2023-05-13T02:04:01.574Z,1003.17
2023-05-13T02:05:01.485Z,1003.19
2023-05-13T02:06:01.456Z,1003.17
2023-05-13T02:07:01.468Z,1003.18
2023-05-13T02:08:01.437Z,1003.21
2023-05-13T02:09:01.455Z,1003.19
2023-05-13T02:10:01.407Z,1003.18
2023-05-13T02:11:01.397Z,1003.17
2023-05-13T02:12:01.376Z,1003.19
2023-05-13T02:13:01.383Z,1003.23
2023-05-13T02:14:01.363Z,1003.22
2023-05-13T02:15:01.340Z,1003.26
2023-05-13T02:16:01.350Z,1003.24
2023-05-13T02:17:01.310Z,1003.25
2023-05-13T02:18:01.430Z,1003.27
2023-05-13T02:19:01.334Z,1003.25
2023-05-13T02:20:01.270Z,1003.29
2023-05-13T02:21:01.257Z,1003.27
2023-05-13T02:22:01.242Z,1003.22
2023-05-13T02:23:01.245Z,1003.23
2023-05-13T02:24:01.216Z,1003.26
2023-05-13T02:25:01.229Z,1003.27
2023-05-13T02:26:01.193Z,1003.27
2023-05-13T02:27:01.233Z,1003.32
2023-05-13T02:28:01.180Z,1003.33
2023-05-13T02:29:01.154Z,1003.31
2023-05-13T02:30:01.140Z,1003.31
2023-05-13T02:31:01.151Z,1003.35
2023-05-13T02:32:01.205Z,1003.35
2023-05-13T02:33:01.182Z,1003.32
2023-05-13T02:34:01.090Z,1003.32
2023-05-13T02:35:01.069Z,1003.26
2023-05-13T02:36:01.068Z,1003.24
2023-05-13T02:37:01.060Z,1003.24
2023-05-13T02:38:01.033Z,1003.41
2023-05-13T02:39:01.024Z,1003.27
2023-05-13T02:40:01.009Z,1003.28
2023-05-13T02:41:01.038Z,1003.20
2023-05-13T02:42:01.002Z,1003.28
2023-05-13T02:43:00.971Z,1003.29
2023-05-13T02:44:00.966Z,1003.29
2023-05-13T02:45:00.940Z,1003.27
2023-05-13T02:46:00.946Z,1003.25
2023-05-13T02:47:00.955Z,1003.24
2023-05-13T02:48:00.932Z,1003.23
2023-05-13T02:49:00.891Z,1003.25
2023-05-13T02:50:00.875Z,1003.26
2023-05-13T02:51:00.876Z,1003.25
2023-05-13T02:52:00.861Z,1003.22
2023-05-13T02:53:00.842Z,1003.16
2023-05-13T02:54:00.824Z,1003.23
2023-05-13T02:55:00.865Z,1003.18
2023-05-13T02:56:00.814Z,1003.15
2023-05-13T02:57:00.811Z,1003.08
2023-05-13T02:58:00.768Z,1003.15
2023-05-13T02:59:00.759Z,1003.15
2023-05-13T03:00:00.748Z,1003.11
2023-05-13T03:01:00.792Z,1003.16
2023-05-13T03:02:00.719Z,1003.15
2023-05-13T03:03:00.880Z,1003.16
2023-05-13T03:04:00.689Z,1003.14
2023-05-13T03:05:00.714Z,1003.19
2023-05-13T03:06:00.674Z,1003.17
2023-05-13T03:07:00.652Z,1003.14
2023-05-13T03:08:00.635Z,1003.19
2023-05-13T03:09:00.631Z,1003.16
2023-05-13T03:10:00.633Z,1003.19
2023-05-13T03:11:00.603Z,1003.14
2023-05-13T03:12:00.591Z,1003.18
2023-05-13T03:13:00.595Z,1003.21
2023-05-13T03:14:00.561Z,1003.19
2023-05-13T03:15:00.574Z,1003.14
2023-05-13T03:16:00.563Z,1003.19
2023-05-13T03:17:00.526Z,1003.17
2023-05-13T03:18:00.552Z,1003.24
2023-05-13T03:19:00.561Z,1003.25
2023-05-13T03:20:00.531Z,1003.23
2023-05-13T03:21:00.471Z,1003.25
2023-05-13T03:22:00.459Z,1003.32
2023-05-13T03:23:00.443Z,1003.30
2023-05-13T03:24:00.439Z,1003.29
2023-05-13T03:25:00.412Z,1003.30
2023-05-13T03:26:00.403Z,1003.29
2023-05-13T03:27:00.408Z,1003.25
2023-05-13T03:28:00.374Z,1003.32
2023-05-13T03:29:00.395Z,1003.34
2023-05-13T03:30:00.368Z,1003.34
2023-05-13T03:31:00.401Z,1003.28
2023-05-13T03:32:00.319Z,1003.33
2023-05-13T03:33:00.408Z,1003.34
2023-05-13T03:34:00.304Z,1003.32
2023-05-13T03:35:00.282Z,1003.36
2023-05-13T03:36:00.274Z,1003.36
2023-05-13T03:37:00.254Z,1003.25
2023-05-13T03:38:00.248Z,1003.28
2023-05-13T03:39:00.229Z,1003.31
2023-05-13T03:40:00.220Z,1003.28
2023-05-13T03:41:00.208Z,1003.43
2023-05-13T03:42:00.184Z,1003.36
2023-05-13T03:43:00.185Z,1003.29
2023-05-13T03:44:00.155Z,1003.28
2023-05-13T03:45:00.164Z,1003.30
2023-05-13T03:46:00.137Z,1003.32
2023-05-13T03:47:00.203Z,1003.31
2023-05-13T03:48:00.204Z,1003.28
2023-05-13T03:49:00.135Z,1003.27
2023-05-13T03:50:00.105Z,1003.25
2023-05-13T03:51:00.071Z,1003.29
2023-05-13T03:52:00.096Z,1003.28
2023-05-13T03:53:00.040Z,1003.31
2023-05-13T03:54:00.052Z,1003.34
2023-05-13T03:55:00.017Z,1003.27
2023-05-13T03:55:59.998Z,1003.27
2023-05-13T03:57:00.004Z,1003.26
2023-05-13T03:57:59.971Z,1003.24
2023-05-13T03:58:59.968Z,1003.28
2023-05-13T03:59:59.947Z,1003.22
2023-05-13T04:00:59.977Z,1003.26
2023-05-13T04:02:00.006Z,1003.24
2023-05-13T04:02:59.963Z,1003.28
2023-05-13T04:03:59.897Z,1003.25
2023-05-13T04:04:59.959Z,1003.27
2023-05-13T04:05:59.889Z,1003.32
2023-05-13T04:06:59.862Z,1003.32
2023-05-13T04:07:59.847Z,1003.36
2023-05-13T04:08:59.834Z,1003.33
2023-05-13T04:09:59.817Z,1003.38
2023-05-13T04:10:59.817Z,1003.37
2023-05-13T04:11:59.797Z,1003.43
2023-05-13T04:12:59.780Z,1003.42
2023-05-13T04:13:59.766Z,1003.41
2023-05-13T04:14:59.767Z,1003.46
2023-05-13T04:15:59.754Z,1003.44
2023-05-13T04:16:59.767Z,1003.40
2023-05-13T04:17:59.743Z,1003.50
2023-05-13T04:18:59.780Z,1003.47
2023-05-13T04:19:59.704Z,1003.46
2023-05-13T04:20:59.675Z,1003.54
2023-05-13T04:21:59.704Z,1003.54
2023-05-13T04:22:59.645Z,1003.55
2023-05-13T04:23:59.659Z,1003.56
2023-05-13T04:24:59.632Z,1003.57
2023-05-13T04:25:59.607Z,1003.56
2023-05-13T04:27:01.327Z,1003.57
2023-05-13T04:27:59.584Z,1003.54
2023-05-13T04:28:59.586Z,1003.58
2023-05-13T04:29:59.568Z,1003.55
2023-05-13T04:30:59.553Z,1003.57
2023-05-13T04:31:59.582Z,1003.58
2023-05-13T04:32:59.571Z,1003.60
2023-05-13T04:33:59.520Z,1003.62
2023-05-13T04:34:59.485Z,1003.64
2023-05-13T04:35:59.468Z,1003.60
2023-05-13T04:36:59.454Z,1003.61
2023-05-13T04:37:59.442Z,1003.60
2023-05-13T04:38:59.441Z,1003.59
2023-05-13T04:39:59.467Z,1003.65
2023-05-13T04:40:59.400Z,1003.67
2023-05-13T04:41:59.388Z,1003.67
2023-05-13T04:42:59.399Z,1003.66
2023-05-13T04:43:59.386Z,1003.69
2023-05-13T04:44:59.353Z,1003.69
2023-05-13T04:45:59.380Z,1003.72
2023-05-13T04:46:59.408Z,1003.74
2023-05-13T04:47:59.339Z,1003.74
2023-05-13T04:48:59.313Z,1003.74
2023-05-13T04:49:59.315Z,1003.73
2023-05-13T04:50:59.303Z,1003.72
2023-05-13T04:51:59.273Z,1003.81
2023-05-13T04:52:59.267Z,1003.74
2023-05-13T04:53:59.232Z,1003.77
2023-05-13T04:54:59.222Z,1003.70
2023-05-13T04:55:59.201Z,1003.72
2023-05-13T04:56:59.205Z,1003.74
2023-05-13T04:57:59.178Z,1003.72
2023-05-13T04:59:06.105Z,1003.72
2023-05-13T04:59:59.150Z,1003.67
2023-05-13T05:00:59.145Z,1003.73
2023-05-13T05:01:59.232Z,1003.69
2023-05-13T05:02:59.185Z,1003.69
2023-05-13T05:03:59.133Z,1003.71
2023-05-13T05:04:59.109Z,1003.73
2023-05-13T05:05:59.087Z,1003.75
2023-05-13T05:06:59.080Z,1003.74
2023-05-13T05:07:59.080Z,1003.81
2023-05-13T05:08:59.075Z,1003.80
2023-05-13T05:09:59.018Z,1003.82
2023-05-13T05:10:59.018Z,1003.83
2023-05-13T05:11:58.992Z,1003.87
2023-05-13T05:12:58.977Z,1003.88
2023-05-13T05:13:58.964Z,1003.87
2023-05-13T05:14:58.951Z,1003.86
2023-05-13T05:15:58.961Z,1003.88
2023-05-13T05:16:58.971Z,1003.90
2023-05-13T05:17:58.946Z,1003.92
2023-05-13T05:18:58.930Z,1003.96
2023-05-13T05:19:58.910Z,1003.99
2023-05-13T05:21:00.508Z,1003.90
2023-05-13T05:21:58.894Z,1003.95
2023-05-13T05:22:58.844Z,1003.94
2023-05-13T05:23:58.833Z,1003.95
2023-05-13T05:24:58.839Z,1003.97
2023-05-13T05:26:10.498Z,1003.91
2023-05-13T05:26:58.830Z,1003.98
2023-05-13T05:27:58.787Z,1003.99
2023-05-13T05:28:58.767Z,1003.99
2023-05-13T05:29:58.771Z,1003.97
2023-05-13T05:30:58.741Z,1003.98
2023-05-13T05:31:58.776Z,1003.93
2023-05-13T05:32:58.775Z,1004.01
2023-05-13T05:33:58.707Z,1004.00
2023-05-13T05:34:58.710Z,1003.99
2023-05-13T05:35:58.702Z,1003.95
2023-05-13T05:36:58.769Z,1003.97
2023-05-13T05:37:58.709Z,1003.93
2023-05-13T05:38:58.675Z,1003.91
2023-05-13T05:39:58.636Z,1003.94
2023-05-13T05:40:58.641Z,1003.92
2023-05-13T05:41:58.592Z,1003.90
2023-05-13T05:42:58.578Z,1003.92
2023-05-13T05:43:58.579Z,1003.94
2023-05-13T05:44:58.552Z,1003.95
2023-05-13T05:45:58.629Z,1003.97
2023-05-13T05:46:58.531Z,1004.01
2023-05-13T05:47:58.538Z,1004.06
2023-05-13T05:48:58.511Z,1004.03
2023-05-13T05:49:58.487Z,1003.99
2023-05-13T05:50:58.475Z,1004.04
2023-05-13T05:51:58.457Z,1004.00
2023-05-13T05:52:58.538Z,1004.05
2023-05-13T05:53:58.470Z,1004.05
2023-05-13T05:54:58.420Z,1004.03
2023-05-13T05:55:58.409Z,1003.98
2023-05-13T05:56:58.397Z,1004.06
2023-05-13T05:57:58.399Z,1004.05
2023-05-13T05:58:58.395Z,1004.04
2023-05-13T05:59:58.359Z,1004.05
2023-05-13T06:00:58.375Z,1004.08
2023-05-13T06:01:58.347Z,1004.07
2023-05-13T06:02:58.446Z,1004.08
2023-05-13T06:03:58.475Z,1004.03
2023-05-13T06:04:58.287Z,1004.09
2023-05-13T06:05:58.445Z,1004.09
2023-05-13T06:06:58.337Z,1004.11
2023-05-13T06:07:58.265Z,1004.10
2023-05-13T06:08:58.312Z,1004.13
2023-05-13T06:09:58.221Z,1004.13
2023-05-13T06:10:58.223Z,1004.09
2023-05-13T06:11:58.210Z,1004.16
2023-05-13T06:12:58.189Z,1004.14
2023-05-13T06:13:58.174Z,1004.13
2023-05-13T06:14:58.158Z,1004.13
2023-05-13T06:15:58.220Z,1004.17
2023-05-13T06:16:58.135Z,1004.11
2023-05-13T06:17:58.155Z,1004.22
2023-05-13T06:18:58.139Z,1004.19
2023-05-13T06:19:58.086Z,1004.11
2023-05-13T06:20:58.088Z,1004.13
2023-05-13T06:21:58.076Z,1004.07
2023-05-13T06:22:58.046Z,1004.12
2023-05-13T06:23:58.041Z,1004.14
2023-05-13T06:24:58.063Z,1004.16
2023-05-13T06:25:58.024Z,1004.17
2023-05-13T06:26:58.014Z,1004.14
2023-05-13T06:27:57.990Z,1004.18
2023-05-13T06:28:57.968Z,1004.24
2023-05-13T06:29:57.952Z,1004.18
2023-05-13T06:30:58.010Z,1004.19
2023-05-13T06:31:57.934Z,1004.19
2023-05-13T06:33:02.074Z,1004.17
2023-05-13T06:33:57.906Z,1004.17
2023-05-13T06:34:57.897Z,1004.12
2023-05-13T06:35:57.921Z,1004.13
2023-05-13T06:36:57.864Z,1004.15
2023-05-13T06:37:57.853Z,1004.16
2023-05-13T06:38:57.841Z,1004.16
2023-05-13T06:39:57.841Z,1004.17
2023-05-13T06:40:57.849Z,1004.18
2023-05-13T06:41:57.801Z,1004.12
2023-05-13T06:42:57.779Z,1004.22
2023-05-13T06:43:57.781Z,1004.22
2023-05-13T06:44:57.780Z,1004.22
2023-05-13T06:45:57.799Z,1004.17
2023-05-13T06:46:57.736Z,1004.18
2023-05-13T06:47:58.495Z,1004.22
2023-05-13T06:48:57.714Z,1004.28
2023-05-13T06:49:57.715Z,1004.17
2023-05-13T06:50:57.676Z,1004.17
2023-05-13T06:51:57.668Z,1004.17
2023-05-13T06:52:57.648Z,1004.22
2023-05-13T06:53:57.651Z,1004.26
2023-05-13T06:54:57.668Z,1004.21
2023-05-13T06:55:57.609Z,1004.25
2023-05-13T06:56:57.619Z,1004.35
2023-05-13T06:57:57.586Z,1004.21
2023-05-13T06:58:57.590Z,1004.20
2023-05-13T06:59:57.557Z,1004.23
2023-05-13T07:00:57.609Z,1004.24
2023-05-13T07:01:57.532Z,1004.29
2023-05-13T07:02:57.540Z,1004.29
2023-05-13T07:03:57.600Z,1004.20
2023-05-13T07:04:57.488Z,1004.23
2023-05-13T07:05:57.475Z,1004.23
2023-05-13T07:06:57.513Z,1004.22
2023-05-13T07:07:57.473Z,1004.23
2023-05-13T07:08:57.454Z,1004.25
2023-05-13T07:09:57.426Z,1004.24
2023-05-13T07:10:57.402Z,1004.23
2023-05-13T07:11:57.412Z,1004.21
2023-05-13T07:12:57.420Z,1004.24
2023-05-13T07:13:57.371Z,1004.27
2023-05-13T07:14:57.350Z,1004.18
2023-05-13T07:15:57.340Z,1004.20
2023-05-13T07:16:57.369Z,1004.19
2023-05-13T07:17:57.368Z,1004.14
2023-05-13T07:18:57.344Z,1004.24
2023-05-13T07:19:57.293Z,1004.17
2023-05-13T07:20:57.275Z,1004.18
2023-05-13T07:21:57.270Z,1004.16
2023-05-13T07:22:57.263Z,1004.27
2023-05-13T07:23:57.232Z,1004.19
2023-05-13T07:24:57.222Z,1004.21
2023-05-13T07:25:57.221Z,1004.15
2023-05-13T07:26:57.216Z,1004.13
2023-05-13T07:27:57.181Z,1004.18
2023-05-13T07:28:57.214Z,1004.15
2023-05-13T07:29:57.150Z,1004.22
2023-05-13T07:30:57.150Z,1004.14
2023-05-13T07:31:57.138Z,1004.20
2023-05-13T07:32:57.246Z,1004.14
2023-05-13T07:33:57.098Z,1004.21
2023-05-13T07:34:57.078Z,1004.11
2023-05-13T07:35:57.124Z,1004.13
2023-05-13T07:36:57.069Z,1004.10
2023-05-13T07:37:57.050Z,1004.17
2023-05-13T07:38:57.028Z,1004.15
2023-05-13T07:39:57.014Z,1004.09
2023-05-13T07:40:57.016Z,1004.16
2023-05-13T07:41:57.006Z,1004.12
2023-05-13T07:42:56.977Z,1004.09
2023-05-13T07:43:56.963Z,1004.16
2023-05-13T07:44:56.997Z,1004.15
2023-05-13T07:45:56.956Z,1004.15
2023-05-13T07:46:56.952Z,1004.21
2023-05-13T07:47:56.971Z,1004.20
2023-05-13T07:48:56.902Z,1004.17
2023-05-13T07:49:56.886Z,1004.27
2023-05-13T07:50:56.965Z,1004.21
2023-05-13T07:51:56.871Z,1004.10
2023-05-13T07:52:56.855Z,1004.20
2023-05-13T07:53:56.841Z,1004.18
2023-05-13T07:54:56.839Z,1004.22
2023-05-13T07:55:56.825Z,1004.22
2023-05-13T07:56:56.797Z,1004.20
2023-05-13T07:57:56.780Z,1004.28
2023-05-13T07:58:56.763Z,1004.17
2023-05-13T07:59:56.816Z,1004.19
2023-05-13T08:00:56.786Z,1004.22
2023-05-13T08:01:56.732Z,1004.12
2023-05-13T08:02:56.766Z,1004.15
2023-05-13T08:03:57.030Z,1004.28
2023-05-13T08:04:56.768Z,1004.25
2023-05-13T08:05:56.670Z,1004.23
2023-05-13T08:06:56.679Z,1004.18
2023-05-13T08:07:56.651Z,1004.20
2023-05-13T08:08:56.630Z,1004.13
2023-05-13T08:09:56.664Z,1004.18
2023-05-13T08:10:56.611Z,1004.12
2023-05-13T08:11:56.592Z,1004.09
2023-05-13T08:12:56.580Z,1004.28
2023-05-13T08:13:56.581Z,1004.14
2023-05-13T08:14:56.567Z,1004.24
2023-05-13T08:15:56.637Z,1004.15
2023-05-13T08:16:56.649Z,1004.30
2023-05-13T08:17:56.588Z,1004.26
2023-05-13T08:18:56.561Z,1004.32
2023-05-13T08:19:56.672Z,1004.26
2023-05-13T08:20:56.476Z,1004.30
2023-05-13T08:21:56.462Z,1004.23
2023-05-13T08:22:56.456Z,1004.24
2023-05-13T08:23:56.449Z,1004.18
2023-05-13T08:24:56.425Z,1004.18
2023-05-13T08:25:56.410Z,1004.14
2023-05-13T08:26:56.392Z,1004.13
2023-05-13T08:27:56.404Z,1004.19
2023-05-13T08:28:56.369Z,1004.18
2023-05-13T08:29:56.370Z,1004.11
2023-05-13T08:30:56.340Z,1004.18
2023-05-13T08:31:56.420Z,1004.19
2023-05-13T08:32:56.399Z,1004.21
2023-05-13T08:33:56.307Z,1004.18
2023-05-13T08:34:56.296Z,1004.23
2023-05-13T08:35:56.278Z,1004.14
2023-05-13T08:36:56.275Z,1004.13
2023-05-13T08:37:56.270Z,1004.14
2023-05-13T08:38:56.240Z,1004.14
2023-05-13T08:39:56.227Z,1004.14
2023-05-13T08:40:56.272Z,1004.11
2023-05-13T08:41:56.223Z,1004.13
2023-05-13T08:42:56.202Z,1004.10
2023-05-13T08:43:56.180Z,1004.14
2023-05-13T08:44:56.162Z,1004.20
2023-05-13T08:45:56.245Z,1004.21
2023-05-13T08:46:56.153Z,1004.01
2023-05-13T08:47:56.136Z,1004.19
2023-05-13T08:48:56.149Z,1004.25
2023-05-13T08:49:56.108Z,1004.19
2023-05-13T08:50:56.089Z,1004.15
2023-05-13T08:51:56.092Z,1003.91
2023-05-13T08:52:56.068Z,1003.92
2023-05-13T08:53:56.066Z,1004.17
2023-05-13T08:54:56.037Z,1004.16
2023-05-13T08:55:56.042Z,1004.21
2023-05-13T08:56:56.058Z,1004.17
2023-05-13T08:57:56.030Z,1004.15
2023-05-13T08:58:55.991Z,1004.13
2023-05-13T08:59:55.970Z,1004.01
2023-05-13T09:00:56.009Z,1004.09
2023-05-13T09:01:55.963Z,1003.96
2023-05-13T09:02:56.021Z,1004.12
2023-05-13T09:03:55.922Z,1003.92
2023-05-13T09:04:55.995Z,1003.87
2023-05-13T09:05:55.934Z,1003.86
2023-05-13T09:06:55.967Z,1003.90
2023-05-13T09:07:55.913Z,1004.12
2023-05-13T09:08:55.859Z,1004.11
2023-05-13T09:09:55.847Z,1004.08
2023-05-13T09:10:55.853Z,1004.06
2023-05-13T09:11:55.830Z,1004.09
2023-05-13T09:12:55.815Z,1004.15
2023-05-13T09:13:55.797Z,1004.09
2023-05-13T09:14:55.799Z,1004.13
2023-05-13T09:15:55.828Z,1004.11
2023-05-13T09:16:55.770Z,1004.09
2023-05-13T09:17:55.865Z,1004.16
2023-05-13T09:18:55.824Z,1004.14
2023-05-13T09:19:55.782Z,1004.12
2023-05-13T09:20:55.750Z,1004.17
2023-05-13T09:21:55.699Z,1004.11
2023-05-13T09:22:55.681Z,1004.12
2023-05-13T09:23:55.666Z,1004.07
2023-05-13T09:24:55.679Z,1004.20
2023-05-13T09:25:55.638Z,1004.11
2023-05-13T09:26:55.637Z,1004.17
2023-05-13T09:27:55.621Z,1004.07
2023-05-13T09:28:55.605Z,1004.11
2023-05-13T09:29:55.604Z,1003.98
2023-05-13T09:30:55.634Z,1004.07
2023-05-13T09:31:55.585Z,1004.10
2023-05-13T09:32:55.566Z,1004.19
2023-05-13T09:33:56.044Z,1004.20
2023-05-13T09:34:55.578Z,1004.14
2023-05-13T09:35:56.523Z,1004.09
2023-05-13T09:36:55.742Z,1004.11
2023-05-13T09:37:55.501Z,1004.11
2023-05-13T09:38:55.502Z,1004.14
2023-05-13T09:39:55.476Z,1004.14
2023-05-13T09:40:55.584Z,1004.07
2023-05-13T09:41:55.447Z,1004.11
2023-05-13T09:42:55.448Z,1004.05
2023-05-13T09:43:55.449Z,1004.04
2023-05-13T09:44:55.423Z,1003.99
2023-05-13T09:45:55.399Z,1004.01
2023-05-13T09:46:55.456Z,1003.96
2023-05-13T09:47:55.413Z,1003.97
2023-05-13T09:48:57.075Z,1003.94
2023-05-13T09:49:55.372Z,1004.02
2023-05-13T09:50:55.370Z,1004.02
2023-05-13T09:51:55.331Z,1003.95
2023-05-13T09:52:55.353Z,1004.00
2023-05-13T09:53:55.328Z,1003.93
2023-05-13T09:54:55.295Z,1003.82
2023-05-13T09:55:55.280Z,1003.97
2023-05-13T09:56:55.270Z,1004.00
2023-05-13T09:57:55.275Z,1003.88
2023-05-13T09:58:55.271Z,1003.93
2023-05-13T09:59:55.236Z,1004.04
2023-05-13T10:00:55.336Z,1003.74
2023-05-13T10:01:55.247Z,1003.65
2023-05-13T10:02:55.255Z,1003.75
2023-05-13T10:03:55.245Z,1003.76
2023-05-13T10:04:55.170Z,1003.71
2023-05-13T10:05:55.165Z,1003.71
2023-05-13T10:06:55.171Z,1003.67
2023-05-13T10:07:55.153Z,1003.73
2023-05-13T10:08:55.143Z,1003.68
2023-05-13T10:09:55.110Z,1003.77
2023-05-13T10:10:55.098Z,1003.81
2023-05-13T10:11:55.103Z,1003.96
2023-05-13T10:12:55.088Z,1003.72
2023-05-13T10:13:55.188Z,1003.72
2023-05-13T10:14:55.050Z,1003.74
2023-05-13T10:15:55.032Z,1003.74
2023-05-13T10:16:55.180Z,1003.70
2023-05-13T10:17:55.022Z,1003.57
2023-05-13T10:18:55.142Z,1003.69
2023-05-13T10:19:54.992Z,1003.93
2023-05-13T10:20:54.978Z,1003.64
2023-05-13T10:21:54.970Z,1003.63
2023-05-13T10:22:54.953Z,1003.55
2023-05-13T10:23:54.932Z,1003.67
2023-05-13T10:24:54.931Z,1003.52
2023-05-13T10:25:54.920Z,1003.55
2023-05-13T10:26:54.907Z,1003.62
2023-05-13T10:27:54.876Z,1003.59
2023-05-13T10:28:54.865Z,1003.55
2023-05-13T10:29:54.847Z,1003.52
2023-05-13T10:30:54.998Z,1003.53
2023-05-13T10:31:54.852Z,1003.60
2023-05-13T10:32:54.855Z,1003.57
2023-05-13T10:33:54.794Z,1003.53
2023-05-13T10:34:54.801Z,1003.49
2023-05-13T10:35:54.799Z,1003.53
2023-05-13T10:36:54.790Z,1003.52
2023-05-13T10:37:54.758Z,1003.55
2023-05-13T10:38:54.755Z,1003.46
2023-05-13T10:39:54.743Z,1003.54
2023-05-13T10:40:54.731Z,1003.53
2023-05-13T10:41:54.694Z,1003.56
2023-05-13T10:42:54.684Z,1003.73
2023-05-13T10:43:54.663Z,1003.48
2023-05-13T10:44:54.676Z,1003.41
2023-05-13T10:45:54.649Z,1003.45
2023-05-13T10:46:54.625Z,1003.49
2023-05-13T10:47:54.714Z,1003.41
2023-05-13T10:48:54.615Z,1003.47
2023-05-13T10:49:54.624Z,1003.45
2023-05-13T10:50:54.571Z,1003.50
2023-05-13T10:51:54.562Z,1003.50
2023-05-13T10:52:54.549Z,1003.58
2023-05-13T10:53:54.553Z,1003.70
2023-05-13T10:54:54.523Z,1003.58
2023-05-13T10:55:54.510Z,1003.54
2023-05-13T10:56:54.528Z,1003.78
2023-05-13T10:57:54.506Z,1003.68
2023-05-13T10:58:54.597Z,1003.64
2023-05-13T10:59:54.457Z,1003.71
2023-05-13T11:00:54.470Z,1003.64
2023-05-13T11:01:54.448Z,1003.61
2023-05-13T11:02:54.520Z,1003.33
2023-05-13T11:03:54.579Z,1003.33
2023-05-13T11:04:54.406Z,1003.44
2023-05-13T11:05:54.380Z,1003.47
2023-05-13T11:06:54.371Z,1003.39
2023-05-13T11:07:54.387Z,1003.34
2023-05-13T11:08:55.974Z,1003.31
2023-05-13T11:09:54.326Z,1003.36
2023-05-13T11:10:54.318Z,1003.34
2023-05-13T11:11:54.313Z,1003.30
2023-05-13T11:12:54.335Z,1003.36
2023-05-13T11:13:54.284Z,1003.42
2023-05-13T11:14:54.265Z,1003.57
2023-05-13T11:15:54.283Z,1003.59
2023-05-13T11:16:54.279Z,1003.30
2023-05-13T11:17:54.280Z,1003.25
2023-05-13T11:18:54.270Z,1003.37
2023-05-13T11:19:54.204Z,1003.47
2023-05-13T11:20:54.192Z,1003.34
2023-05-13T11:21:54.190Z,1003.13
2023-05-13T11:22:54.178Z,1003.18
2023-05-13T11:23:54.172Z,1003.21
2023-05-13T11:24:54.153Z,1003.18
2023-05-13T11:25:54.120Z,1003.12
2023-05-13T11:26:54.128Z,1003.11
2023-05-13T11:27:54.094Z,1003.09
2023-05-13T11:28:54.113Z,1003.08
2023-05-13T11:29:54.071Z,1003.09
2023-05-13T11:30:54.430Z,1003.15
2023-05-13T11:31:54.163Z,1003.16
2023-05-13T11:32:54.115Z,1003.14
2023-05-13T11:33:54.020Z,1003.20
2023-05-13T11:34:54.002Z,1003.25
2023-05-13T11:35:54.085Z,1003.20
2023-05-13T11:36:54.000Z,1003.21
2023-05-13T11:37:53.964Z,1003.25
2023-05-13T11:38:53.955Z,1003.24
2023-05-13T11:39:53.995Z,1003.30
2023-05-13T11:40:53.949Z,1003.16
2023-05-13T11:41:53.945Z,1003.35
2023-05-13T11:42:53.905Z,1003.32
2023-05-13T11:43:53.888Z,1003.30
2023-05-13T11:44:53.910Z,1003.33
2023-05-13T11:45:53.943Z,1003.35
2023-05-13T11:46:53.944Z,1003.38
2023-05-13T11:47:53.893Z,1003.33
2023-05-13T11:48:53.821Z,1003.33
2023-05-13T11:49:53.823Z,1003.29
2023-05-13T11:50:53.795Z,1003.24
2023-05-13T11:51:53.782Z,1003.35
2023-05-13T11:52:53.771Z,1003.30
2023-05-13T11:53:53.754Z,1003.31
2023-05-13T11:54:53.849Z,1003.30
2023-05-13T11:55:53.729Z,1003.29
2023-05-13T11:56:53.734Z,1003.37
2023-05-13T11:57:53.702Z,1003.33
2023-05-13T11:58:53.708Z,1003.38
2023-05-13T11:59:53.708Z,1003.37
2023-05-13T12:00:53.720Z,1003.36
2023-05-13T12:01:53.685Z,1003.39
2023-05-13T12:02:53.914Z,1003.44
2023-05-13T12:03:53.683Z,1003.47
2023-05-13T12:04:53.715Z,1003.49